createdAt,value
2023-06-14T00:00:55.783Z,33.83
2023-06-14T00:01:56.860Z,33.84
2023-06-14T00:02:57.190Z,33.87
2023-06-14T00:03:57.172Z,33.90
2023-06-14T00:04:56.980Z,33.90
2023-06-14T00:05:57.077Z,33.88
2023-06-14T00:06:57.100Z,33.89
2023-06-14T00:07:57.211Z,33.88
2023-06-14T00:08:57.194Z,33.91
2023-06-14T00:09:57.230Z,33.92
2023-06-14T00:10:57.312Z,33.91
2023-06-14T00:11:57.363Z,33.93
2023-06-14T00:12:56.383Z,33.90
2023-06-14T00:13:56.428Z,33.92
2023-06-14T00:14:56.489Z,33.89
2023-06-14T00:15:56.521Z,33.88
2023-06-14T00:16:56.608Z,33.89
2023-06-14T00:17:56.683Z,33.91
2023-06-14T00:18:57.657Z,33.90
2023-06-14T00:19:56.808Z,33.92
2023-06-14T00:20:57.738Z,33.92
2023-06-14T00:21:56.792Z,33.91
2023-06-14T00:22:56.886Z,33.92
2023-06-14T00:23:57.915Z,33.95
2023-06-14T00:24:57.941Z,33.92
2023-06-14T00:25:57.002Z,33.93
2023-06-14T00:26:58.082Z,33.95
2023-06-14T00:27:57.139Z,33.94
2023-06-14T00:28:58.140Z,33.96
2023-06-14T00:29:58.206Z,33.95
2023-06-14T00:30:58.254Z,33.97
2023-06-14T00:31:58.370Z,33.97
2023-06-14T00:32:57.399Z,33.99
2023-06-14T00:33:57.417Z,33.97
2023-06-14T00:34:57.533Z,33.97
2023-06-14T00:35:57.555Z,33.98
2023-06-14T00:36:58.568Z,34.00
2023-06-14T00:37:58.634Z,34.00
2023-06-14T00:38:57.675Z,34.00
2023-06-14T00:39:58.728Z,34.00
2023-06-14T00:40:58.776Z,34.00
2023-06-14T00:41:58.821Z,33.99
2023-06-14T00:42:58.864Z,34.00
2023-06-14T00:43:58.924Z,33.98
2023-06-14T00:44:58.976Z,33.99
2023-06-14T00:45:59.092Z,33.98
2023-06-14T00:46:59.236Z,33.96
2023-06-14T00:47:59.218Z,33.98
2023-06-14T00:48:59.225Z,33.97
2023-06-14T00:49:59.230Z,33.95
2023-06-14T00:50:59.343Z,33.95
2023-06-14T00:51:59.357Z,33.99
2023-06-14T00:52:59.405Z,34.01
2023-06-14T00:53:58.473Z,33.97
2023-06-14T00:54:59.526Z,33.99
2023-06-14T00:55:58.561Z,34.00
2023-06-14T00:56:59.610Z,34.00
2023-06-14T00:57:59.682Z,34.01
2023-06-14T00:58:59.722Z,34.00
2023-06-14T00:59:59.806Z,34.01
2023-06-14T01:00:58.828Z,34.02
2023-06-14T01:01:59.902Z,34.01
2023-06-14T01:03:00.031Z,34.02
2023-06-14T01:03:59.035Z,34.01
2023-06-14T01:05:00.048Z,34.01
2023-06-14T01:06:00.084Z,34.04
2023-06-14T01:07:00.193Z,34.06
2023-06-14T01:07:59.179Z,34.05
2023-06-14T01:09:00.204Z,34.04
2023-06-14T01:10:00.278Z,34.00
2023-06-14T01:10:59.305Z,34.01
2023-06-14T01:12:00.328Z,34.00
2023-06-14T01:13:00.403Z,34.00
2023-06-14T01:14:00.422Z,34.02
2023-06-14T01:14:59.457Z,34.02
2023-06-14T01:16:00.575Z,34.01
2023-06-14T01:17:00.569Z,34.02
2023-06-14T01:18:00.644Z,34.02
2023-06-14T01:19:00.676Z,34.00
2023-06-14T01:20:00.713Z,34.01
2023-06-14T01:21:00.758Z,34.03
2023-06-14T01:22:00.816Z,34.03
2023-06-14T01:22:59.911Z,34.05
2023-06-14T01:23:59.935Z,34.04
2023-06-14T01:25:00.948Z,34.08
2023-06-14T01:25:59.988Z,34.06
2023-06-14T01:27:00.011Z,34.07
2023-06-14T01:28:01.057Z,34.07
2023-06-14T01:29:01.105Z,34.04
2023-06-14T01:30:00.181Z,34.05
2023-06-14T01:31:01.181Z,34.04
2023-06-14T01:32:00.232Z,34.04
2023-06-14T01:33:00.340Z,34.07
2023-06-14T01:34:01.384Z,34.06
2023-06-14T01:35:01.492Z,34.05
2023-06-14T01:36:01.444Z,34.07
2023-06-14T01:37:01.489Z,34.06
2023-06-14T01:38:01.556Z,34.08
2023-06-14T01:39:01.561Z,34.06
2023-06-14T01:40:00.596Z,34.07
2023-06-14T01:41:01.667Z,34.06
2023-06-14T01:42:01.807Z,34.05
2023-06-14T01:43:00.769Z,34.06
2023-06-14T01:44:00.817Z,34.08
2023-06-14T01:45:01.850Z,34.07
2023-06-14T01:46:00.940Z,34.07
2023-06-14T01:47:01.957Z,34.08
2023-06-14T01:48:02.089Z,34.07
2023-06-14T01:49:02.026Z,34.08
2023-06-14T01:50:02.073Z,34.11
2023-06-14T01:51:01.110Z,34.13
2023-06-14T01:52:02.146Z,34.07
2023-06-14T01:53:02.250Z,34.10
2023-06-14T01:54:02.256Z,34.09
2023-06-14T01:55:02.287Z,34.11
2023-06-14T01:56:01.313Z,34.10
2023-06-14T01:57:02.348Z,34.10
2023-06-14T01:58:02.384Z,34.10
2023-06-14T01:59:01.425Z,34.10
2023-06-14T02:00:02.469Z,34.11
2023-06-14T02:01:02.541Z,34.11
2023-06-14T02:02:02.570Z,34.12
2023-06-14T02:03:02.639Z,34.10
2023-06-14T02:04:01.663Z,34.09
2023-06-14T02:05:01.700Z,34.10
2023-06-14T02:06:02.871Z,34.10
2023-06-14T02:07:01.849Z,34.10
2023-06-14T02:08:01.866Z,34.09
2023-06-14T02:09:01.896Z,34.08
2023-06-14T02:10:02.962Z,34.09
2023-06-14T02:11:02.944Z,34.08
2023-06-14T02:12:02.943Z,34.09
2023-06-14T02:13:02.975Z,34.07
2023-06-14T02:14:02.977Z,34.08
2023-06-14T02:15:02.022Z,34.07
2023-06-14T02:16:02.056Z,34.07
2023-06-14T02:17:02.081Z,34.09
2023-06-14T02:18:03.182Z,34.06
2023-06-14T02:19:03.143Z,34.07
2023-06-14T02:20:03.149Z,34.10
2023-06-14T02:21:02.193Z,34.10
2023-06-14T02:22:03.227Z,34.11
2023-06-14T02:23:02.365Z,34.11
2023-06-14T02:24:03.366Z,34.10
2023-06-14T02:25:03.460Z,34.09
2023-06-14T02:26:03.410Z,34.10
2023-06-14T02:27:03.310Z,34.08
2023-06-14T02:28:03.386Z,34.09
2023-06-14T02:29:03.385Z,34.08
2023-06-14T02:30:03.370Z,34.08
2023-06-14T02:31:03.439Z,34.07
2023-06-14T02:32:03.576Z,34.08
2023-06-14T02:33:03.530Z,34.08
2023-06-14T02:34:03.638Z,34.10
2023-06-14T02:35:02.534Z,34.08
2023-06-14T02:36:03.554Z,34.07
2023-06-14T02:37:03.628Z,34.07
2023-06-14T02:38:03.635Z,34.05
2023-06-14T02:39:03.650Z,34.04
2023-06-14T02:40:03.664Z,34.08
2023-06-14T02:41:03.683Z,34.08
2023-06-14T02:42:02.715Z,34.09
2023-06-14T02:43:03.725Z,34.11
2023-06-14T02:44:03.711Z,34.09
2023-06-14T02:45:03.739Z,34.08
2023-06-14T02:46:03.760Z,34.10
2023-06-14T02:47:02.800Z,34.11
2023-06-14T02:48:03.957Z,34.11
2023-06-14T02:49:03.908Z,34.11
2023-06-14T02:50:02.862Z,34.13
2023-06-14T02:51:02.886Z,34.12
2023-06-14T02:52:02.909Z,34.14
2023-06-14T02:53:02.928Z,34.09
2023-06-14T02:54:03.963Z,34.09
2023-06-14T02:55:03.971Z,34.10
2023-06-14T02:56:04.011Z,34.11
2023-06-14T02:57:04.029Z,34.12
2023-06-14T02:58:04.114Z,34.11
2023-06-14T02:59:03.098Z,34.10
2023-06-14T03:00:03.121Z,34.10
2023-06-14T03:01:04.208Z,34.11
2023-06-14T03:02:04.213Z,34.07
2023-06-14T03:03:04.253Z,34.11
2023-06-14T03:04:04.418Z,34.09
2023-06-14T03:05:03.223Z,34.12
2023-06-14T03:06:03.251Z,34.12
2023-06-14T03:07:03.305Z,34.11
2023-06-14T03:08:03.361Z,34.14
2023-06-14T03:09:04.406Z,34.15
2023-06-14T03:10:04.435Z,34.16
2023-06-14T03:11:04.441Z,34.14
2023-06-14T03:12:04.433Z,34.15
2023-06-14T03:13:04.469Z,34.15
2023-06-14T03:14:04.500Z,34.13
2023-06-14T03:15:04.521Z,34.13
2023-06-14T03:16:04.514Z,34.14
2023-06-14T03:17:04.605Z,34.13
2023-06-14T03:18:04.697Z,34.13
2023-06-14T03:19:04.647Z,34.14
2023-06-14T03:20:03.674Z,34.15
2023-06-14T03:21:04.665Z,34.14
2023-06-14T03:22:04.703Z,34.11
2023-06-14T03:23:04.758Z,34.13
2023-06-14T03:24:04.933Z,34.15
2023-06-14T03:25:04.787Z,34.14
2023-06-14T03:26:04.810Z,34.13
2023-06-14T03:27:04.834Z,34.11
2023-06-14T03:28:03.824Z,34.14
2023-06-14T03:29:04.850Z,34.11
2023-06-14T03:30:03.885Z,34.12
2023-06-14T03:31:05.589Z,34.10
2023-06-14T03:32:04.882Z,34.09
2023-06-14T03:33:03.959Z,34.09
2023-06-14T03:34:04.932Z,34.09
2023-06-14T03:35:04.953Z,34.11
2023-06-14T03:36:04.949Z,34.09
2023-06-14T03:37:04.954Z,34.11
2023-06-14T03:38:04.970Z,34.11
2023-06-14T03:39:03.991Z,34.11
2023-06-14T03:40:04.993Z,34.12
2023-06-14T03:41:05.044Z,34.11
2023-06-14T03:42:05.060Z,34.10
2023-06-14T03:43:04.086Z,34.10
2023-06-14T03:44:05.078Z,34.09
2023-06-14T03:45:05.119Z,34.08
2023-06-14T03:46:05.141Z,34.10
2023-06-14T03:47:04.129Z,34.13
2023-06-14T03:48:05.211Z,34.09
2023-06-14T03:49:05.165Z,34.09
2023-06-14T03:50:05.227Z,34.11
2023-06-14T03:51:04.188Z,34.11
2023-06-14T03:52:05.203Z,34.09
2023-06-14T03:53:05.221Z,34.10
2023-06-14T03:54:17.801Z,34.10
2023-06-14T03:56:04.225Z,34.13
2023-06-14T03:57:05.209Z,34.12
2023-06-14T03:58:05.216Z,34.12
2023-06-14T03:59:04.214Z,34.09
2023-06-14T04:00:05.210Z,34.10
2023-06-14T04:01:05.207Z,34.10
2023-06-14T04:02:05.208Z,34.10
2023-06-14T04:03:05.257Z,34.07
2023-06-14T04:04:04.224Z,34.05
2023-06-14T04:05:05.222Z,34.06
2023-06-14T04:06:05.189Z,34.06
2023-06-14T04:07:04.164Z,34.05
2023-06-14T04:08:05.160Z,34.04
2023-06-14T04:09:05.152Z,34.06
2023-06-14T04:10:05.130Z,34.04
2023-06-14T04:11:05.154Z,34.03
2023-06-14T04:12:05.121Z,34.02
2023-06-14T04:13:05.128Z,34.03
2023-06-14T04:14:04.106Z,34.01
2023-06-14T04:15:18.890Z,33.99
2023-06-14T04:16:05.119Z,34.01
2023-06-14T04:17:05.080Z,34.04
2023-06-14T04:18:04.147Z,33.99
2023-06-14T04:19:05.070Z,34.01
2023-06-14T04:20:05.129Z,34.01
2023-06-14T04:21:05.053Z,34.00
2023-06-14T04:22:05.061Z,34.01
2023-06-14T04:23:04.036Z,34.00
2023-06-14T04:24:05.076Z,33.97
2023-06-14T04:25:05.752Z,34.01
2023-06-14T04:26:05.053Z,33.99
2023-06-14T04:27:05.020Z,33.99
2023-06-14T04:28:05.016Z,33.97
2023-06-14T04:29:04.039Z,33.99
2023-06-14T04:30:05.086Z,34.00
2023-06-14T04:31:04.008Z,33.95
2023-06-14T04:32:05.000Z,33.98
2023-06-14T04:33:05.083Z,33.97
2023-06-14T04:34:05.018Z,33.98
2023-06-14T04:35:05.055Z,34.01
2023-06-14T04:36:04.964Z,34.01
2023-06-14T04:37:04.962Z,33.97
2023-06-14T04:38:04.993Z,33.94
2023-06-14T04:39:03.954Z,33.90
2023-06-14T04:40:04.946Z,33.92
2023-06-14T04:41:04.953Z,33.94
2023-06-14T04:42:05.014Z,33.92
2023-06-14T04:43:04.981Z,33.94
2023-06-14T04:44:04.982Z,33.93
2023-06-14T04:45:04.984Z,33.88
2023-06-14T04:46:05.013Z,33.86
2023-06-14T04:47:05.002Z,33.90
2023-06-14T04:48:05.044Z,33.87
2023-06-14T04:49:05.028Z,33.88
2023-06-14T04:50:04.036Z,33.86
2023-06-14T04:51:04.029Z,33.86
2023-06-14T04:52:05.060Z,33.86
2023-06-14T04:53:05.102Z,32.44
2023-06-14T04:54:05.143Z,31.75
2023-06-14T04:55:04.178Z,32.18
2023-06-14T04:56:05.313Z,32.21
2023-06-14T04:57:05.241Z,32.34
2023-06-14T04:58:05.275Z,32.63
2023-06-14T04:59:05.317Z,32.46
2023-06-14T05:00:05.373Z,32.42
2023-06-14T05:01:05.421Z,32.37
2023-06-14T05:02:05.410Z,32.45
2023-06-14T05:03:04.557Z,32.95
2023-06-14T05:04:05.609Z,33.15
2023-06-14T05:05:04.526Z,33.05
2023-06-14T05:06:05.577Z,32.85
2023-06-14T05:07:05.563Z,32.77
2023-06-14T05:08:04.608Z,32.77
2023-06-14T05:09:05.632Z,32.86
2023-06-14T05:10:05.656Z,32.85
2023-06-14T05:11:05.687Z,32.74
2023-06-14T05:12:05.709Z,32.59
2023-06-14T05:13:05.748Z,32.46
2023-06-14T05:14:05.787Z,32.25
2023-06-14T05:15:05.809Z,32.12
2023-06-14T05:16:05.894Z,31.91
2023-06-14T05:17:04.867Z,31.87
2023-06-14T05:18:06.000Z,31.88
2023-06-14T05:19:05.947Z,31.81
2023-06-14T05:20:06.011Z,31.97
2023-06-14T05:21:06.029Z,31.87
2023-06-14T05:22:05.144Z,32.08
2023-06-14T05:23:05.135Z,32.44
2023-06-14T05:24:06.263Z,32.60
2023-06-14T05:25:06.242Z,32.34
2023-06-14T05:26:06.275Z,32.24
2023-06-14T05:27:06.358Z,32.20
2023-06-14T05:28:06.374Z,32.32
2023-06-14T05:29:05.406Z,32.36
2023-06-14T05:30:05.475Z,32.42
2023-06-14T05:31:05.537Z,32.44
2023-06-14T05:32:06.568Z,32.54
2023-06-14T05:33:06.602Z,32.76
2023-06-14T05:34:06.681Z,32.72
2023-06-14T05:35:06.663Z,32.76
2023-06-14T05:36:08.654Z,32.67
2023-06-14T05:37:06.691Z,32.68
2023-06-14T05:38:06.701Z,32.65
2023-06-14T05:39:06.673Z,32.57
2023-06-14T05:40:06.679Z,32.18
2023-06-14T05:41:06.670Z,31.67
2023-06-14T05:42:06.679Z,31.39
2023-06-14T05:43:06.667Z,31.12
2023-06-14T05:44:06.655Z,30.78
2023-06-14T05:45:06.619Z,30.62
2023-06-14T05:46:05.624Z,30.43
2023-06-14T05:47:06.701Z,30.43
2023-06-14T05:48:06.660Z,30.28
2023-06-14T05:49:06.627Z,30.18
2023-06-14T05:50:06.616Z,30.20
2023-06-14T05:51:05.613Z,30.23
2023-06-14T05:52:06.583Z,30.15
2023-06-14T05:53:06.576Z,30.02
2023-06-14T05:54:06.612Z,30.04
2023-06-14T05:55:06.559Z,29.98
2023-06-14T05:56:06.572Z,30.72
2023-06-14T05:57:06.557Z,30.41
2023-06-14T05:58:05.557Z,30.27
2023-06-14T05:59:05.566Z,30.28
2023-06-14T06:00:06.543Z,30.40
2023-06-14T06:01:06.520Z,30.46
2023-06-14T06:02:06.532Z,30.37
2023-06-14T06:03:06.573Z,30.39
2023-06-14T06:04:06.619Z,30.01
2023-06-14T06:05:06.487Z,29.90
2023-06-14T06:06:05.489Z,30.04
2023-06-14T06:07:06.502Z,29.96
2023-06-14T06:08:06.491Z,30.00
2023-06-14T06:09:06.476Z,30.02
2023-06-14T06:10:06.518Z,30.10
2023-06-14T06:11:06.472Z,30.38
2023-06-14T06:12:05.448Z,30.12
2023-06-14T06:13:05.466Z,30.12
2023-06-14T06:14:06.443Z,30.06
2023-06-14T06:15:06.456Z,29.68
2023-06-14T06:16:06.462Z,29.67
2023-06-14T06:17:06.541Z,29.94
2023-06-14T06:18:06.528Z,29.90
2023-06-14T06:19:06.561Z,30.07
2023-06-14T06:20:06.550Z,30.03
2023-06-14T06:21:06.558Z,29.83
2023-06-14T06:22:05.576Z,29.67
2023-06-14T06:23:06.595Z,29.69
2023-06-14T06:24:06.678Z,29.77
2023-06-14T06:25:05.611Z,29.85
2023-06-14T06:26:05.668Z,29.93
2023-06-14T06:27:05.615Z,30.03
2023-06-14T06:28:06.663Z,29.95
2023-06-14T06:29:06.707Z,29.86
2023-06-14T06:30:06.776Z,29.82
2023-06-14T06:31:06.831Z,29.71
2023-06-14T06:32:06.881Z,29.96
2023-06-14T06:33:06.983Z,29.90
2023-06-14T06:34:06.969Z,30.05
2023-06-14T06:35:07.037Z,29.90
2023-06-14T06:36:07.078Z,29.82
2023-06-14T06:37:06.111Z,29.59
2023-06-14T06:38:07.163Z,29.88
2023-06-14T06:39:07.208Z,29.92
2023-06-14T06:40:07.330Z,29.68
2023-06-14T06:41:07.230Z,29.83
2023-06-14T06:42:07.302Z,29.55
2023-06-14T06:43:07.324Z,29.59
2023-06-14T06:44:06.319Z,29.58
2023-06-14T06:45:06.328Z,29.42
2023-06-14T06:46:07.409Z,29.52
2023-06-14T06:47:07.368Z,29.85
2023-06-14T06:48:06.471Z,30.05
2023-06-14T06:49:06.410Z,30.05
2023-06-14T06:50:07.414Z,29.95
2023-06-14T06:51:07.447Z,29.65
2023-06-14T06:52:06.446Z,29.97
2023-06-14T06:53:07.456Z,30.40
2023-06-14T06:54:07.613Z,30.99
2023-06-14T06:55:07.482Z,31.32
2023-06-14T06:56:07.494Z,30.94
2023-06-14T06:57:07.489Z,31.03
2023-06-14T06:58:06.527Z,30.89
2023-06-14T06:59:07.533Z,30.94
2023-06-14T07:00:06.529Z,30.85
2023-06-14T07:01:07.526Z,30.85
2023-06-14T07:02:07.641Z,30.86
2023-06-14T07:03:06.636Z,30.83
2023-06-14T07:04:07.638Z,30.81
2023-06-14T07:05:06.701Z,30.75
2023-06-14T07:06:07.814Z,30.71
2023-06-14T07:07:07.735Z,30.68
2023-06-14T07:08:07.778Z,30.69
2023-06-14T07:09:07.831Z,30.68
2023-06-14T07:10:07.896Z,30.65
2023-06-14T07:11:07.940Z,30.63
2023-06-14T07:12:07.979Z,30.62
2023-06-14T07:13:10.254Z,30.63
2023-06-14T07:14:08.039Z,30.59
2023-06-14T07:15:07.992Z,30.54
2023-06-14T07:16:08.074Z,30.52
2023-06-14T07:17:08.008Z,30.50
2023-06-14T07:18:08.056Z,30.47
2023-06-14T07:19:08.007Z,30.45
2023-06-14T07:20:07.969Z,30.44
2023-06-14T07:21:07.963Z,30.37
2023-06-14T07:22:07.957Z,30.37
2023-06-14T07:23:06.963Z,30.37
2023-06-14T07:24:07.970Z,30.35
2023-06-14T07:25:06.952Z,30.31
2023-06-14T07:26:06.923Z,30.29
2023-06-14T07:27:07.920Z,30.25
2023-06-14T07:28:07.919Z,30.27
2023-06-14T07:29:07.924Z,30.18
2023-06-14T07:30:08.264Z,30.20
2023-06-14T07:31:07.880Z,30.14
2023-06-14T07:32:07.879Z,30.15
2023-06-14T07:33:08.023Z,30.16
2023-06-14T07:34:06.916Z,30.14
2023-06-14T07:35:07.912Z,30.11
2023-06-14T07:36:07.857Z,30.09
2023-06-14T07:37:06.860Z,30.08
2023-06-14T07:38:06.835Z,30.06
2023-06-14T07:39:06.872Z,30.05
2023-06-14T07:40:07.838Z,30.04
2023-06-14T07:41:07.823Z,30.04
2023-06-14T07:42:06.813Z,30.04
2023-06-14T07:43:07.819Z,30.03
2023-06-14T07:44:07.863Z,30.03
2023-06-14T07:45:07.897Z,29.99
2023-06-14T07:46:08.405Z,29.97
2023-06-14T07:47:07.985Z,29.98
2023-06-14T07:48:08.146Z,29.27
2023-06-14T07:49:08.292Z,29.12
2023-06-14T07:50:08.120Z,28.40
2023-06-14T07:51:08.170Z,28.25
2023-06-14T07:52:08.236Z,28.08
2023-06-14T07:53:08.302Z,27.82
2023-06-14T07:54:07.663Z,27.48
2023-06-14T07:55:08.368Z,27.24
2023-06-14T07:56:08.406Z,27.20
2023-06-14T07:57:08.405Z,26.54
2023-06-14T07:58:08.411Z,26.91
2023-06-14T07:59:08.434Z,26.85
2023-06-14T08:00:07.482Z,26.65
2023-06-14T08:01:07.528Z,26.59
2023-06-14T08:02:08.509Z,26.49
2023-06-14T08:03:07.522Z,26.10
2023-06-14T08:04:08.493Z,26.04
2023-06-14T08:05:08.475Z,26.23
2023-06-14T08:06:08.556Z,26.30
2023-06-14T08:07:07.941Z,25.70
2023-06-14T08:08:08.599Z,25.69
2023-06-14T08:09:08.647Z,25.59
2023-06-14T08:10:08.656Z,25.40
2023-06-14T08:11:08.768Z,25.88
2023-06-14T08:12:07.772Z,25.74
2023-06-14T08:13:08.826Z,25.85
2023-06-14T08:14:08.902Z,25.67
2023-06-14T08:15:14.372Z,25.66
2023-06-14T08:16:08.977Z,25.39
2023-06-14T08:17:07.932Z,25.16
2023-06-14T08:18:07.980Z,25.04
2023-06-14T08:19:08.912Z,24.88
2023-06-14T08:20:07.894Z,24.94
2023-06-14T08:21:08.901Z,25.07
2023-06-14T08:22:08.868Z,25.01
2023-06-14T08:23:08.860Z,24.91
2023-06-14T08:24:07.897Z,24.74
2023-06-14T08:25:08.865Z,24.44
2023-06-14T08:26:08.862Z,24.50
2023-06-14T08:27:09.667Z,24.83
2023-06-14T08:28:08.859Z,24.82
2023-06-14T08:29:08.889Z,24.51
2023-06-14T08:30:07.886Z,24.72
2023-06-14T08:31:08.811Z,24.80
2023-06-14T08:32:08.863Z,24.53
2023-06-14T08:33:16.619Z,24.63
2023-06-14T08:34:08.839Z,24.35
2023-06-14T08:35:08.816Z,24.63
2023-06-14T08:36:07.785Z,24.38
2023-06-14T08:37:08.784Z,23.86
2023-06-14T08:38:08.783Z,24.44
2023-06-14T08:39:07.767Z,24.60
2023-06-14T08:40:07.769Z,24.41
2023-06-14T08:41:08.764Z,24.62
2023-06-14T08:42:13.094Z,24.37
2023-06-14T08:43:08.755Z,24.41
2023-06-14T08:44:08.728Z,24.63
2023-06-14T08:45:09.173Z,24.45
2023-06-14T08:46:08.724Z,24.42
2023-06-14T08:47:08.717Z,24.52
2023-06-14T08:48:07.833Z,24.45
2023-06-14T08:49:08.690Z,24.49
2023-06-14T08:50:19.772Z,24.29
2023-06-14T08:51:08.740Z,24.49
2023-06-14T08:52:08.684Z,24.56
2023-06-14T08:53:08.666Z,24.88
2023-06-14T08:54:08.670Z,24.59
2023-06-14T08:55:08.668Z,24.40
2023-06-14T08:56:08.659Z,24.54
2023-06-14T08:57:07.649Z,24.67
2023-06-14T08:58:08.664Z,25.02
2023-06-14T08:59:08.645Z,25.13
2023-06-14T09:00:08.676Z,25.02
2023-06-14T09:01:08.731Z,24.54
2023-06-14T09:02:13.168Z,24.60
2023-06-14T09:03:08.652Z,24.43
2023-06-14T09:04:08.601Z,24.76
2023-06-14T09:05:07.610Z,25.00
2023-06-14T09:06:08.618Z,25.26
2023-06-14T09:07:08.581Z,25.19
2023-06-14T09:08:08.581Z,25.40
2023-06-14T09:09:08.578Z,25.58
2023-06-14T09:10:08.579Z,25.62
2023-06-14T09:11:08.551Z,25.33
2023-06-14T09:12:07.551Z,25.39
2023-06-14T09:13:08.549Z,25.40
2023-06-14T09:14:08.541Z,25.59
2023-06-14T09:15:08.530Z,25.47
2023-06-14T09:16:08.536Z,26.06
2023-06-14T09:17:07.550Z,25.77
2023-06-14T09:18:07.566Z,25.75
2023-06-14T09:19:08.517Z,25.77
2023-06-14T09:20:08.497Z,25.37
2023-06-14T09:21:08.521Z,25.38
2023-06-14T09:22:08.531Z,25.26
2023-06-14T09:23:08.467Z,25.52
2023-06-14T09:24:08.499Z,25.53
2023-06-14T09:25:08.467Z,25.30
2023-06-14T09:26:07.457Z,25.21
2023-06-14T09:27:07.447Z,24.53
2023-06-14T09:28:08.466Z,24.21
2023-06-14T09:29:08.448Z,23.65
2023-06-14T09:30:08.451Z,23.29
2023-06-14T09:31:08.562Z,23.13
2023-06-14T09:32:08.435Z,22.94
2023-06-14T09:33:08.627Z,23.03
2023-06-14T09:34:08.399Z,22.98
2023-06-14T09:35:08.415Z,22.98
2023-06-14T09:36:08.403Z,22.53
2023-06-14T09:37:08.392Z,22.47
2023-06-14T09:38:08.684Z,22.51
2023-06-14T09:39:07.419Z,22.26
2023-06-14T09:40:08.372Z,22.12
2023-06-14T09:41:07.368Z,22.37
2023-06-14T09:42:08.366Z,22.39
2023-06-14T09:43:08.362Z,22.19
2023-06-14T09:44:10.619Z,22.12
2023-06-14T09:45:08.370Z,21.83
2023-06-14T09:46:08.349Z,21.87
2023-06-14T09:47:08.346Z,21.94
2023-06-14T09:48:08.704Z,21.54
2023-06-14T09:49:08.490Z,21.99
2023-06-14T09:50:08.713Z,22.39
2023-06-14T09:51:08.329Z,23.09
2023-06-14T09:52:08.315Z,22.93
2023-06-14T09:53:08.541Z,23.34
2023-06-14T09:54:08.396Z,23.56
2023-06-14T09:55:09.554Z,23.82
2023-06-14T09:56:08.435Z,24.02
2023-06-14T09:57:08.472Z,23.97
2023-06-14T09:58:09.110Z,23.56
2023-06-14T09:59:08.773Z,23.21
2023-06-14T10:00:08.607Z,23.04
2023-06-14T10:01:07.675Z,23.39
2023-06-14T10:02:08.724Z,23.46
2023-06-14T10:03:08.743Z,23.36
2023-06-14T10:04:11.364Z,22.70
2023-06-14T10:05:08.885Z,22.59
2023-06-14T10:06:08.765Z,22.41
2023-06-14T10:07:07.787Z,22.28
2023-06-14T10:08:07.764Z,22.64
2023-06-14T10:09:07.762Z,22.43
2023-06-14T10:10:08.834Z,22.39
2023-06-14T10:11:08.733Z,22.21
2023-06-14T10:12:07.730Z,22.39
2023-06-14T10:13:07.724Z,23.21
2023-06-14T10:14:08.718Z,23.34
2023-06-14T10:15:07.704Z,23.29
2023-06-14T10:16:07.700Z,22.85
2023-06-14T10:17:08.696Z,22.75
2023-06-14T10:18:08.734Z,23.06
2023-06-14T10:19:08.685Z,23.21
2023-06-14T10:20:08.680Z,22.71
2023-06-14T10:21:08.678Z,23.23
2023-06-14T10:22:07.680Z,22.65
2023-06-14T10:23:08.661Z,22.53
2023-06-14T10:24:08.681Z,22.95
2023-06-14T10:25:08.651Z,22.87
2023-06-14T10:26:07.667Z,22.46
2023-06-14T10:27:07.623Z,22.85
2023-06-14T10:28:08.629Z,22.98
2023-06-14T10:29:08.644Z,22.88
2023-06-14T10:30:08.606Z,22.80
2023-06-14T10:31:07.604Z,23.08
2023-06-14T10:32:08.641Z,23.15
2023-06-14T10:33:08.668Z,22.76
2023-06-14T10:34:08.596Z,22.61
2023-06-14T10:35:08.675Z,22.23
2023-06-14T10:36:07.598Z,22.38
2023-06-14T10:37:08.562Z,22.28
2023-06-14T10:38:08.573Z,22.10
2023-06-14T10:39:07.570Z,22.04
2023-06-14T10:40:07.576Z,22.05
2023-06-14T10:41:07.562Z,22.72
2023-06-14T10:42:07.572Z,22.45
2023-06-14T10:43:08.548Z,22.30
2023-06-14T10:44:07.538Z,22.09
2023-06-14T10:45:07.754Z,22.24
2023-06-14T10:46:08.568Z,22.02
2023-06-14T10:47:08.521Z,21.93
2023-06-14T10:48:08.517Z,22.16
2023-06-14T10:49:07.491Z,22.23
2023-06-14T10:50:07.538Z,21.86
2023-06-14T10:51:08.595Z,21.85
2023-06-14T10:52:08.649Z,21.73
2023-06-14T10:53:07.665Z,21.56
2023-06-14T10:54:08.711Z,21.63
2023-06-14T10:55:08.737Z,21.24
2023-06-14T10:56:08.765Z,21.47
2023-06-14T10:57:08.810Z,21.69
2023-06-14T10:58:08.910Z,21.91
2023-06-14T10:59:07.903Z,22.02
2023-06-14T11:00:07.992Z,21.99
2023-06-14T11:01:07.996Z,21.94
2023-06-14T11:02:09.054Z,22.11
2023-06-14T11:03:09.218Z,22.23
2023-06-14T11:04:09.128Z,22.33
2023-06-14T11:05:09.112Z,22.24
2023-06-14T11:06:09.147Z,22.33
2023-06-14T11:07:09.207Z,22.53
2023-06-14T11:08:09.252Z,21.96
2023-06-14T11:09:09.300Z,21.72
2023-06-14T11:10:09.350Z,21.48
2023-06-14T11:11:10.227Z,21.51
2023-06-14T11:12:09.393Z,21.55
2023-06-14T11:13:08.403Z,21.87
2023-06-14T11:14:08.455Z,22.07
2023-06-14T11:15:08.443Z,21.88
2023-06-14T11:16:09.498Z,22.07
2023-06-14T11:17:09.461Z,21.88
2023-06-14T11:18:09.504Z,22.20
2023-06-14T11:19:09.524Z,22.39
2023-06-14T11:20:09.561Z,22.41
2023-06-14T11:21:09.697Z,22.59
2023-06-14T11:22:09.641Z,22.74
2023-06-14T11:23:09.672Z,22.67
2023-06-14T11:24:08.751Z,22.78
2023-06-14T11:25:09.775Z,23.30
2023-06-14T11:26:09.818Z,23.49
2023-06-14T11:27:09.932Z,22.81
2023-06-14T11:28:09.891Z,22.65
2023-06-14T11:29:09.922Z,22.16
2023-06-14T11:30:09.982Z,22.43
2023-06-14T11:31:10.002Z,22.27
2023-06-14T11:32:10.357Z,22.35
2023-06-14T11:33:09.075Z,22.29
2023-06-14T11:34:10.079Z,22.49
2023-06-14T11:35:10.103Z,22.06
2023-06-14T11:36:10.252Z,22.24
2023-06-14T11:37:10.118Z,22.53
2023-06-14T11:38:09.127Z,22.71
2023-06-14T11:39:09.177Z,22.80
2023-06-14T11:40:09.210Z,22.87
2023-06-14T11:41:10.228Z,22.89
2023-06-14T11:42:10.234Z,22.96
2023-06-14T11:43:10.237Z,22.90
2023-06-14T11:44:10.279Z,22.95
2023-06-14T11:45:10.595Z,23.00
2023-06-14T11:46:10.297Z,23.02
2023-06-14T11:47:10.406Z,22.92
2023-06-14T11:48:10.327Z,22.94
2023-06-14T11:49:10.391Z,22.92
2023-06-14T11:50:10.321Z,23.05
2023-06-14T11:51:10.353Z,23.07
2023-06-14T11:52:09.329Z,23.02
2023-06-14T11:53:10.339Z,23.10
2023-06-14T11:54:10.336Z,23.03
2023-06-14T11:55:10.401Z,23.02
2023-06-14T11:56:10.383Z,23.01
2023-06-14T11:57:10.435Z,22.92
2023-06-14T11:58:10.416Z,23.02
2023-06-14T11:59:09.446Z,23.00
2023-06-14T12:00:10.453Z,23.06
2023-06-14T12:01:10.466Z,23.05
2023-06-14T12:02:10.598Z,22.92
2023-06-14T12:03:09.616Z,22.95
2023-06-14T12:04:10.611Z,22.91
2023-06-14T12:05:09.685Z,22.86
2023-06-14T12:06:10.848Z,22.88
2023-06-14T12:07:11.772Z,22.91
2023-06-14T12:08:09.834Z,22.86
2023-06-14T12:09:09.892Z,22.83
2023-06-14T12:10:10.954Z,22.83
2023-06-14T12:11:10.033Z,22.85
2023-06-14T12:12:10.064Z,22.78
2023-06-14T12:13:11.107Z,22.74
2023-06-14T12:14:10.160Z,22.72
2023-06-14T12:15:11.214Z,22.73
2023-06-14T12:16:11.264Z,22.76
2023-06-14T12:17:10.452Z,22.75
2023-06-14T12:18:11.537Z,22.68
2023-06-14T12:19:11.435Z,22.65
2023-06-14T12:20:10.498Z,22.67
2023-06-14T12:21:11.688Z,22.67
2023-06-14T12:22:11.607Z,22.63
2023-06-14T12:23:11.653Z,22.98
2023-06-14T12:24:12.330Z,23.13
2023-06-14T12:25:11.753Z,23.44
2023-06-14T12:26:12.317Z,23.39
2023-06-14T12:27:11.784Z,23.25
2023-06-14T12:28:11.821Z,23.09
2023-06-14T12:29:11.852Z,23.15
2023-06-14T12:30:11.946Z,23.38
2023-06-14T12:31:11.991Z,23.45
2023-06-14T12:32:12.087Z,23.47
2023-06-14T12:33:12.323Z,23.41
2023-06-14T12:34:11.182Z,23.35
2023-06-14T12:35:11.204Z,23.22
2023-06-14T12:36:12.237Z,23.13
2023-06-14T12:37:11.304Z,23.21
2023-06-14T12:38:11.335Z,23.27
2023-06-14T12:39:12.400Z,23.22
2023-06-14T12:40:12.489Z,23.24
2023-06-14T12:41:11.543Z,23.21
2023-06-14T12:42:12.563Z,23.15
2023-06-14T12:43:11.586Z,23.19
2023-06-14T12:44:12.629Z,23.19
2023-06-14T12:45:11.682Z,23.23
2023-06-14T12:46:12.759Z,23.23
2023-06-14T12:47:12.773Z,23.20
2023-06-14T12:48:12.817Z,23.19
2023-06-14T12:49:11.887Z,23.17
2023-06-14T12:50:13.151Z,23.18
2023-06-14T12:51:12.963Z,23.18
2023-06-14T12:52:13.013Z,23.19
2023-06-14T12:53:12.052Z,23.18
2023-06-14T12:54:13.115Z,23.17